createdAt,value
2023-04-22T00:04:12.432Z,12.64
2023-04-22T00:09:15.869Z,12.77
2023-04-22T00:14:20.706Z,12.79
2023-04-22T00:19:23.903Z,12.53
2023-04-22T00:24:27.120Z,12.57
2023-04-22T00:29:31.828Z,12.17
2023-04-22T00:34:35.095Z,12.34
2023-04-22T00:39:39.984Z,12.20
2023-04-22T00:44:44.900Z,12.04
2023-04-22T00:49:50.693Z,12.07
2023-04-22T00:54:54.038Z,12.47
2023-04-22T00:59:58.839Z,12.61
2023-04-22T01:05:02.564Z,12.76
2023-04-22T01:10:06.796Z,12.71
2023-04-22T01:15:12.520Z,12.62
2023-04-22T01:20:16.068Z,12.68
2023-04-22T01:25:20.756Z,12.41
2023-04-22T01:30:24.054Z,12.14
2023-04-22T01:35:27.391Z,12.06
2023-04-22T01:40:33.342Z,12.07
2023-04-22T01:45:36.611Z,12.23
2023-04-22T01:50:39.953Z,12.26
2023-04-22T01:55:44.899Z,12.16
2023-04-22T02:00:48.906Z,12.25
2023-04-22T02:05:52.207Z,12.34
2023-04-22T02:10:56.862Z,12.06
2023-04-22T02:16:00.212Z,12.08
2023-04-22T02:21:03.739Z,12.20
2023-04-22T02:26:08.868Z,12.13
2023-04-22T02:31:11.886Z,12.08
2023-04-22T02:36:15.142Z,11.93
2023-04-22T02:41:19.755Z,12.01
2023-04-22T02:46:23.120Z,11.95
2023-04-22T02:51:26.958Z,11.78
2023-04-22T02:56:31.857Z,11.68
2023-04-22T03:01:36.654Z,11.56
2023-04-22T03:06:40.416Z,11.51
2023-04-22T03:11:45.095Z,11.27
2023-04-22T03:16:48.430Z,11.15
2023-04-22T03:21:51.660Z,11.14
2023-04-22T03:26:56.519Z,11.01
2023-04-22T03:31:59.758Z,11.01
2023-04-22T03:37:03.120Z,10.91
2023-04-22T03:42:07.829Z,10.94
2023-04-22T03:47:11.160Z,11.07
2023-04-22T03:52:15.291Z,11.03
2023-04-22T03:57:19.902Z,10.97
2023-04-22T04:02:23.273Z,10.87
2023-04-22T04:07:26.566Z,10.78
2023-04-22T04:12:31.206Z,10.70
2023-04-22T04:17:34.551Z,10.76
2023-04-22T04:22:37.843Z,10.73
2023-04-22T04:27:42.799Z,10.74
2023-04-22T04:32:46.193Z,10.69
2023-04-22T04:37:51.019Z,10.69
2023-04-22T04:42:55.943Z,10.65
2023-04-22T04:48:00.874Z,10.62
2023-04-22T04:53:04.107Z,10.62
2023-04-22T04:58:08.741Z,10.57
2023-04-22T05:03:12.192Z,10.52
2023-04-22T05:08:15.520Z,10.54
2023-04-22T05:13:20.198Z,10.63
2023-04-22T05:18:23.538Z,10.67
2023-04-22T05:23:27.351Z,10.68
2023-04-22T05:28:32.034Z,10.74
2023-04-22T05:33:35.280Z,10.61
2023-04-22T05:38:38.655Z,10.68
2023-04-22T05:43:43.328Z,10.60
2023-04-22T05:48:46.493Z,10.61
2023-04-22T05:53:49.684Z,10.68
2023-04-22T05:58:54.364Z,10.71
2023-04-22T06:03:58.549Z,10.76
2023-04-22T06:09:01.951Z,10.92
2023-04-22T06:14:06.578Z,10.94
2023-04-22T06:19:10.504Z,10.93
2023-04-22T06:24:13.828Z,10.99
2023-04-22T06:29:18.428Z,11.10
2023-04-22T06:34:21.729Z,11.25
2023-04-22T06:39:24.892Z,11.33
2023-04-22T06:44:29.952Z,11.39
2023-04-22T06:49:32.893Z,11.27
2023-04-22T06:54:36.204Z,11.45
2023-04-22T06:59:41.485Z,11.41
2023-04-22T07:04:45.972Z,11.90
2023-04-22T07:09:49.197Z,12.06
2023-04-22T07:14:53.874Z,12.25
2023-04-22T07:19:57.188Z,12.28
2023-04-22T07:25:00.396Z,12.48
2023-04-22T07:30:05.850Z,13.15
2023-04-22T07:35:09.770Z,13.52
2023-04-22T07:40:14.279Z,13.42
2023-04-22T07:45:19.792Z,13.29
2023-04-22T07:50:23.101Z,13.82
2023-04-22T07:55:26.470Z,14.86
2023-04-22T08:00:31.298Z,15.33
2023-04-22T08:05:34.290Z,15.36
2023-04-22T08:10:37.587Z,15.69
2023-04-22T08:15:42.327Z,16.47
2023-04-22T08:20:45.395Z,17.43
2023-04-22T08:25:49.035Z,17.81
2023-04-22T08:30:53.655Z,18.71
2023-04-22T08:35:56.627Z,17.53
2023-04-22T08:41:00.881Z,17.08
2023-04-22T08:46:05.902Z,17.20
2023-04-22T08:51:10.071Z,17.87
2023-04-22T08:56:14.545Z,18.38
2023-04-22T09:01:19.973Z,18.17
2023-04-22T09:06:24.019Z,18.07
2023-04-22T09:11:28.399Z,18.03
2023-04-22T09:16:33.306Z,18.53
2023-04-22T09:21:36.726Z,18.78
2023-04-22T09:26:41.823Z,17.30
2023-04-22T09:31:51.132Z,18.23
2023-04-22T09:36:55.721Z,19.76
2023-04-22T09:41:58.809Z,18.49
2023-04-22T09:47:03.829Z,18.07
2023-04-22T09:52:07.824Z,19.09
2023-04-22T09:57:15.448Z,18.56
2023-04-22T10:02:20.422Z,20.59
2023-04-22T10:07:24.122Z,20.03
2023-04-22T10:12:35.283Z,18.92
2023-04-22T10:17:41.728Z,18.16
2023-04-22T10:22:45.983Z,18.45
2023-04-22T10:27:55.776Z,20.76
2023-04-22T10:33:39.621Z,21.83
2023-04-22T10:39:03.814Z,22.42
2023-04-22T10:44:08.308Z,21.41
2023-04-22T10:49:15.782Z,20.62
2023-04-22T10:54:52.786Z,19.42
2023-04-22T10:59:59.169Z,18.88
2023-04-22T11:05:24.626Z,20.17
2023-04-22T11:10:43.021Z,19.38
2023-04-22T11:15:49.508Z,19.83
2023-04-22T11:20:55.575Z,19.25
2023-04-22T11:26:01.576Z,19.43
2023-04-22T11:31:06.647Z,19.59
2023-04-22T11:36:13.486Z,19.36
2023-04-22T11:41:22.323Z,19.52
2023-04-22T11:46:38.630Z,19.71
2023-04-22T11:51:55.442Z,20.06
2023-04-22T11:56:58.612Z,20.14
2023-04-22T12:02:01.950Z,20.13
2023-04-22T12:07:07.010Z,19.96
2023-04-22T12:12:10.586Z,20.45
2023-04-22T12:17:13.816Z,20.44
2023-04-22T12:22:27.139Z,20.77
2023-04-22T12:27:31.854Z,20.50
2023-04-22T12:32:35.069Z,20.33
2023-04-22T12:37:39.760Z,20.26
2023-04-22T12:42:43.091Z,20.52
2023-04-22T12:47:47.268Z,20.56
2023-04-22T12:52:52.043Z,19.93
2023-04-22T12:57:55.577Z,19.99
2023-04-22T13:02:58.984Z,20.07
2023-04-22T13:08:07.626Z,20.27
2023-04-22T13:13:18.622Z,19.75
2023-04-22T13:18:23.261Z,19.61
2023-04-22T13:23:28.352Z,19.69
2023-04-22T13:28:31.501Z,19.69
2023-04-22T13:33:34.609Z,20.20
2023-04-22T13:38:39.401Z,20.18
2023-04-22T13:43:42.901Z,19.81
2023-04-22T13:48:48.022Z,20.55
2023-04-22T13:53:53.653Z,17.32
2023-04-22T13:58:58.222Z,16.50
2023-04-22T14:04:01.387Z,15.98
2023-04-22T14:09:06.321Z,16.36
2023-04-22T14:14:09.595Z,17.10
2023-04-22T14:19:14.374Z,17.48
2023-04-22T14:24:19.633Z,17.49
2023-04-22T14:29:22.884Z,17.67
2023-04-22T14:34:27.112Z,18.05
2023-04-22T14:39:31.805Z,18.21
2023-04-22T14:44:34.874Z,18.52
2023-04-22T14:49:38.436Z,19.34
2023-04-22T14:54:43.152Z,19.44
2023-04-22T14:59:46.447Z,19.42
2023-04-22T15:04:50.058Z,19.86
2023-04-22T15:09:55.256Z,19.71
2023-04-22T15:14:58.749Z,19.92
2023-04-22T15:20:06.116Z,19.80
2023-04-22T15:25:12.640Z,19.39
2023-04-22T15:30:16.291Z,19.68
2023-04-22T15:35:20.466Z,19.97
2023-04-22T15:40:25.447Z,20.12
2023-04-22T15:45:28.995Z,19.98
2023-04-22T15:50:32.387Z,19.89
2023-04-22T15:55:37.033Z,19.59
2023-04-22T16:00:41.587Z,19.86
2023-04-22T16:05:44.707Z,19.99
2023-04-22T16:10:49.319Z,19.88
2023-04-22T16:15:52.667Z,19.46
2023-04-22T16:20:55.988Z,19.55
2023-04-22T16:26:02.810Z,19.55
2023-04-22T16:31:06.405Z,19.33
2023-04-22T16:36:10.492Z,19.30
2023-04-22T16:41:15.657Z,19.21
2023-04-22T16:46:18.975Z,19.20
2023-04-22T16:51:22.322Z,19.39
2023-04-22T16:56:27.041Z,19.30
2023-04-22T17:01:31.422Z,19.29
2023-04-22T17:06:35.259Z,19.06
2023-04-22T17:11:40.513Z,18.87
2023-04-22T17:16:43.733Z,18.75
2023-04-22T17:21:47.051Z,19.09
2023-04-22T17:26:52.078Z,19.49
2023-04-22T17:31:55.799Z,19.51
2023-04-22T17:36:59.074Z,19.47
2023-04-22T17:42:05.108Z,19.33
2023-04-22T17:47:08.420Z,19.27
2023-04-22T17:52:11.788Z,19.12
2023-04-22T17:57:18.332Z,18.94
2023-04-22T18:02:23.062Z,18.82
2023-04-22T18:07:27.287Z,18.82
2023-04-22T18:12:35.702Z,18.83
2023-04-22T18:17:39.052Z,18.91
2023-04-22T18:22:42.534Z,18.84
2023-04-22T18:27:50.085Z,18.71
2023-04-22T18:32:54.514Z,18.65
2023-04-22T18:37:57.787Z,18.53
2023-04-22T18:43:02.613Z,18.37
2023-04-22T18:48:05.986Z,18.29
2023-04-22T18:53:17.614Z,18.23
2023-04-22T18:58:23.385Z,18.19
2023-04-22T19:03:28.320Z,18.09
2023-04-22T19:08:31.866Z,17.92
2023-04-22T19:13:36.456Z,17.84
2023-04-22T19:18:40.160Z,17.81
2023-04-22T19:23:43.486Z,17.79
2023-04-22T19:28:48.990Z,17.74
2023-04-22T19:33:52.260Z,17.60
2023-04-22T19:38:55.506Z,17.51
2023-04-22T19:44:00.252Z,17.48
2023-04-22T19:49:03.460Z,17.44
2023-04-22T19:54:08.646Z,17.36
2023-04-22T19:59:14.875Z,17.23
2023-04-22T20:04:18.616Z,17.11
2023-04-22T20:09:22.957Z,16.97
2023-04-22T20:14:28.030Z,16.95
2023-04-22T20:19:31.892Z,16.99
2023-04-22T20:24:40.593Z,16.94
2023-04-22T20:29:46.344Z,16.81
2023-04-22T20:34:50.095Z,16.75
2023-04-22T20:39:54.372Z,16.70
2023-04-22T20:44:58.917Z,16.64
2023-04-22T20:50:02.179Z,16.60
2023-04-22T20:55:06.801Z,16.47
2023-04-22T21:00:12.697Z,16.41
2023-04-22T21:05:16.234Z,16.40
2023-04-22T21:10:20.419Z,16.37
2023-04-22T21:15:25.965Z,16.20
2023-04-22T21:20:32.470Z,16.29
2023-04-22T21:25:37.080Z,16.34
2023-04-22T21:30:42.490Z,16.17
2023-04-22T21:35:46.015Z,16.18
2023-04-22T21:40:49.248Z,16.14
2023-04-22T21:45:53.799Z,16.09
2023-04-22T21:50:57.017Z,16.06
2023-04-22T21:56:00.370Z,15.81
2023-04-22T22:01:05.474Z,15.90
2023-04-22T22:06:09.168Z,15.98
2023-04-22T22:11:23.935Z,16.11
2023-04-22T22:16:34.853Z,16.10
2023-04-22T22:21:38.042Z,16.14
2023-04-22T22:26:43.030Z,16.09
2023-04-22T22:31:47.906Z,16.07
2023-04-22T22:36:50.895Z,15.90
2023-04-22T22:41:55.599Z,15.99
2023-04-22T22:47:00.133Z,15.98
2023-04-22T22:52:03.457Z,15.91
2023-04-22T22:57:07.227Z,15.85
2023-04-22T23:02:14.062Z,15.84
2023-04-22T23:07:17.906Z,15.70
2023-04-22T23:12:21.278Z,15.55
2023-04-22T23:17:26.194Z,15.62
2023-04-22T23:22:29.920Z,15.61
2023-04-22T23:27:33.255Z,15.62
2023-04-22T23:32:41.111Z,15.58
2023-04-22T23:37:46.137Z,15.42
2023-04-22T23:42:49.629Z,15.33
2023-04-22T23:47:54.341Z,15.28
2023-04-22T23:52:57.831Z,15.23
2023-04-22T23:58:01.424Z,15.31
